Timeline UpdatesTrip UpdatesNews PostsPvt PostsTravel TipsAdmin PostsConv PostsFollowed PostsChat RequestsBlog PostsPNR Posts

Disclaimer
Search
 
 
Sat Apr 19, 2014 07:30:24 ISTHomeTrainsΣChainsAtlasPNRForumGalleryNewsFAQTripsMembersLoginFeedback
No Recent News for this Train
Other Trains in the News **new
Latest...
.
Fri Dec 13, 2013 (03:40PM)
⇐ Return Journey: Train# 12833

12834/Howrah Ahmedabad SF Express

Jul 01 2013 (4:29PM)
Change Departure Station:
Change Arrival Station:
Post a Train Travel TipPost a Train Travel Tip **new
Post a Comment/Question/Picture/VideoPost a Comment/Question/Picture/Video
Pantry/Catering
✓ Pantry Car Avbl
✓ Catering Avbl
RSA - Rake Sharing
Rake/Coach Composition
LOCO(SRC WAP 4E)-SLR-GEN-S1-S2-S3-S4-S5-S6-S7-S8-S9-S10-S11-S12-PC-S13-B1-B2-A1-A2-GEN-SLR
Loco
Loco: SRC WAP 4 ... Entry# 289462
News    PNR    Forum    Time-Table    Availability    Fare Chart    Map    Arr/Dep History    Trips    Gallery    ΣChains    X/O    Timeline    
Travel Time: 16h 33m    28 halts    Distance: 878 km    Avg Speed: 53 km/hr
Type: SuperFast
Zone: SER/South Eastern
Departs @ 20:27 (Avg 22m late)
Platform# 1
SMTWTFS
Wardha Junction/WR 
Arrives @ 13:00 +1 night (Avg 19m late)
Platform# 6
SMTWTFS
Ahmedabad Junction/ADI 

28 halts. 128 intermediate Stations between Wardha Junction and Ahmedabad Junction

Show ALL intermediate Stations  Show Old Time-Table

#CodeStation NameX/OArrivesAvgDepartsAvgHaltPFDay#KmSpeedElevZoneAddress
1HWHKolkata Howrah Junction (23)  -23:55+3221-1210.26210mERHowrah 711101, West Bengal
2MCAMecheda (6)  00:51+800:52+151m--2-1151.93410mSERdist - purba Medinipur, West Bengal
3PKUPanskura Junction (6)X  01:14+601:15+81m--2-1139.5599mSERPanskura, West Bengal
4KGPKharagpur Junction (10)  02:00+302:05+45m32-1095.17742mSERKharagpur, West Bengal
5TATATatanagar Junction (5)XO  03:50+1703:55+175m--2-960.168164mSER91-657-2423026, Jharkhand
6CKPChakradharpur (3)  04:50+1704:57+177m12-897.878235mSERChakradharpur (West Singhbhum), Jharkhand
7ROURourkela Junction (5)X  06:15+2406:30+2315m32-796.762198mSERRourkela, Odisha
8GPRaj Gangpur (3)  06:59+2407:00+251m12-766.972237mSERRaj Ganpur, Odisha
9BMBBamra (3)  07:29+2107:30+211m--2-732.358259mSERBamra PH : 06642-229268, Odisha
10JSGJharsuguda Junction (5)X  08:08+1408:10+162m--2-695.878236mSERJharsuguda, Odisha
11BRJNBrajrajnagar  08:19+2608:20+271m--2-684.159212mSECRBrajrajnagar, Odisha
12BPHBelpahar  08:29+2708:30+281m--2-675.285235mSECRBelpahar, Odisha
13RIGRaigarh (3)  09:06+2909:11+285m--2-624.189220mSECRRaigarh, Chhattisgarh
14KHSKharsia  09:34+3809:35+391m--2-590.286259mSECRNational Highway 200, Chhattisgarh
15BUABaradwarX  09:56+4509:57+461m--2-559.955256mSECRJanjgir-Champa, Chhattisgarh
16CPHChampa Junction (3)X  10:14+4710:19+455m32-544.465264mSECRNational Highway 200 (07819-245767), Chhattisgarh
17NIANailaX  10:29+4610:30+471m--2-533.669273mSECRJanjgir, Chhattisgarh
18AKTAkaltara (4)X  10:43+4610:44+471m--2-518.629284mSECRDist. Janjgir Champa, Chhattisgarh
19BSPBilaspur Junction (8)X  11:40+2111:55+2815m22-491.475271mSECRBilaspur, Chhattisgarh
20BYTBhatapara (4)X  12:32+2812:33+291m22-445.282270mSECRBanjari Road, Chhattisgarh
21TLDTilda (3)X  12:52+2812:53+291m--2-419.155291mSECRBanjari Rd, Chhattisgarh
22RRaipur Junction (6)X  13:35+2913:45+2910m52-381.076297mSECRRaipur, Chhattisgarh
23BPHBBhilai Power House (3)XO  14:07+1614:08+171m12-353.017312mSECRBhilai, Chhattisgarh
24DURGDurg Junction (6)X  14:40+1614:45+175m42-344.087299mSECRPh: 91-788-2322059, Chhattisgarh
25RJNRaj Nandgaon (3)  15:06+2315:08+232m--2-313.682313mSECRRajnandgaon, Chhattisgarh
26DGGDongargarh (2)  15:31+2615:32+281m12-282.074353mSECRDongargarh, Chhattisgarh
27AGNAmgaon (2)X  16:13+3216:14+331m--2-231.647317mSECRGondia, Maharashtra
28GGondia Junction (7)X  16:43+2416:48+245m22-208.788316mSECRGondia 441601, Maharashtra
29TROTirora (3)  17:08+2817:09+291m--2-179.568282mSECRDist Gondiya, Maharashtra
30TMRTumsar Road (3)  17:27+2717:28+281m--2-159.167267mSECRBhandara, Maharashtra
31BRDBhandara Road (2)X  17:44+2717:45+281m22-141.290266mSECRState Highway 252, Maharashtra
32KPKamptee (3)X  18:17+2818:18+281m--2-93.220290mSECRMH 441001, Maharashtra
33NGPNagpur Junction (9)X  19:00+1819:10+2010m32-78.920314mCRNagpur 440001, Maharashtra
34AJNIAjni (3)X  19:19+2419:20+261m32-75.871310mCRNagpur 440003, Maharashtra
35WR»Wardha Junction»X  20:24+2220:27+223m120.081289mCRWardha 442001, Maharashtra
36PLOPulgaon Junction (3)  20:49+2520:50+261m2229.567273mCRPulgaon, Maharashtra
37DMNDhamangaon (2)  21:08+2621:09+271m--249.566300mCRDhamangaon, Maharashtra
38CNDChandur (2)X  21:24+2621:25+271m--266.138331mCRAmravati Distt, Maharashtra
39BDBadnera Junction (4)X  22:10+2322:15+235m1294.986335mCRBadnera (Amravati) 444701, Maharashtra
40MZRMurtizapur (3)X  22:44+2922:45+311m--2136.774303mCRMurtajapur, Maharashtra
41AKAkola Junction (7)  23:15+3023:20+315m12173.993284mCRAkola-444001, Maharashtra
42SEGShegaon (2)  23:44+3523:45+361m22211.162276mCRShegaon 444203, Maharashtra
43JMJalamb Junction (3)  23:57+3423:58+361m12223.467259mCRJalamb, Maharashtra
44NNNandura  00:09+3600:10+401m13235.770267mCRNandura, Maharashtra
45MKUMalkapur (2)  00:34+3900:35+411m23263.650252mCRMalkapur, Maharashtra
46BSLBhusaval Junction (8)XO  01:35+3401:45+4110m43313.437208mCRBhusaval 425201, Maharashtra
47JLJalgaon Junction (4)X  02:24+2602:25+301m23337.651213mCRJalgaon 425001, Maharashtra
48DXGDharangaon  03:00+3903:01+401m13367.351217mWRDharangaon, Maharashtra
49ANAmalner (1)  03:30+3503:33+353m13392.273188mWRAmalner, Maharashtra
50SNKSindkheda (1)  04:07+3804:08+391m13433.845178mWRState Highway 11, Maharashtra
51DDEDondaicha (2)X  04:34+3404:35+361m23453.149163mWRDondaicha, Maharashtra
52NDBNandurbar (3)  05:17+2805:25+298m13487.549203mWRNandurbar, Maharashtra
53NWUNavapur (2)  06:36+1806:37+231m--3545.554124mWRNavapur, Gujarat
54VYAVyara (2)  07:24+1907:25+201m13587.45690mWRVyara, Gujarat
55MIDMadhi (1)X  07:41+2007:42+211m13602.35645mWRMadhi, Gujarat
56BIYBardoli (2)X  07:58+2307:59+241m--3617.13635mWRNear Bardoli Sugar Factory Bardoli, Gujarat
57UDNUdhna Junction (3)XO  08:44+1508:45+181m13644.31416mWRUdhna 394210, Gujarat
58STSurat (4)X  09:02+1509:12+1510m23648.37919mWRSurat 395001, Gujarat
59BHBharuch Junction (5)X  09:57+2309:58+241m33707.67419mWRBharuch, Gujarat
60BRCVadodara Junction (7)X  10:55+2811:00+285m33778.16936mWRVadodara, Gujarat
61ANNDAnand Junction (6)  11:31+2911:32+301m23813.95044mWRAnand, Gujarat
62NDNadiad Junction (4)X  11:54+2611:55+271m--3832.45737mWRNadiad, Gujarat
63MANManinagar (2)X  12:40+2012:41+211m13874.81050mWRAhmadabad, Gujarat
64ADI•Ahmedabad Junction (12)•  13:00+19-63878.0-51mWRAhmedabad, Gujarat
Scroll to Top
Scroll to Bottom